Time;durP1;ratioP1;P1;durP2;ratioP2;P2;SDS_P1;SDS_P2;PMS_P1;PMS_P2;Temp;Humidity;BMP_temperature;BMP_pressure;BME280_temperature;BME280_humidity;BME280_pressure;Samples;Min_cycle;Max_cycle;Signal;HPM_P1;HPM_P2
2022/07/04 00:00:20;;;;;;;2.50;2.30;;;;;;;16.14;100.00;97087.13;4948246;28;20205;-53
2022/07/04 00:02:49;;;;;;;1.97;1.87;;;;;;;16.14;100.00;97086.31;4983303;28;20251;-58
2022/07/04 00:05:18;;;;;;;1.80;1.70;;;;;;;16.11;100.00;97087.59;4981920;28;20809;-59
2022/07/04 00:07:48;;;;;;;2.80;2.60;;;;;;;16.05;100.00;97077.75;4984375;28;20243;-53
2022/07/04 00:10:22;;;;;;;2.27;2.07;;;;;;;15.98;100.00;97069.00;4966401;28;20220;-57
2022/07/04 00:12:51;;;;;;;1.97;1.87;;;;;;;15.99;100.00;97071.47;4981853;28;20661;-58
2022/07/04 00:15:21;;;;;;;2.40;2.30;;;;;;;15.97;100.00;97072.72;4948253;28;20419;-58
2022/07/04 00:17:49;;;;;;;3.37;2.77;;;;;;;15.94;100.00;97073.16;4981201;28;20228;-56
2022/07/04 00:20:18;;;;;;;2.23;2.13;;;;;;;15.93;100.00;97079.53;4980877;28;20209;-59
2022/07/04 00:22:46;;;;;;;2.13;2.03;;;;;;;15.96;100.00;97073.75;4987193;28;20206;-57
2022/07/04 00:25:15;;;;;;;1.93;1.80;;;;;;;15.92;100.00;97065.38;4982050;28;20875;-53
2022/07/04 00:27:43;;;;;;;2.10;2.00;;;;;;;15.89;100.00;97076.47;4967742;28;20229;-56
2022/07/04 00:30:12;;;;;;;2.00;1.90;;;;;;;15.87;100.00;97071.34;4943291;28;20335;-59
2022/07/04 00:32:41;;;;;;;2.17;2.07;;;;;;;15.85;100.00;97070.75;4980656;28;20210;-61
2022/07/04 00:35:10;;;;;;;2.63;2.53;;;;;;;15.91;100.00;97075.22;4975586;28;20201;-57
2022/07/04 00:37:38;;;;;;;2.60;2.43;;;;;;;15.85;100.00;97069.91;4980453;28;21947;-56
2022/07/04 00:40:07;;;;;;;2.10;2.00;;;;;;;15.86;100.00;97083.06;4981273;28;20256;-58
2022/07/04 00:42:35;;;;;;;2.67;2.50;;;;;;;15.93;100.00;97092.91;4973716;28;20237;-54
2022/07/04 00:45:04;;;;;;;2.07;2.00;;;;;;;16.09;100.00;97094.19;4983196;28;20210;-56
2022/07/04 00:47:33;;;;;;;2.33;2.23;;;;;;;16.15;100.00;97095.97;4945129;28;20271;-59
2022/07/04 00:50:03;;;;;;;2.43;2.23;;;;;;;16.16;100.00;97101.09;4939315;28;20524;-60
2022/07/04 00:52:31;;;;;;;2.60;2.50;;;;;;;16.13;100.00;97112.22;4965228;28;20307;-56
2022/07/04 00:55:01;;;;;;;2.27;2.17;;;;;;;16.21;100.00;97105.75;4987113;28;20914;-57
2022/07/04 00:57:29;;;;;;;2.33;2.10;;;;;;;16.23;100.00;97109.03;4970441;28;21452;-59
2022/07/04 00:59:57;;;;;;;3.07;2.50;;;;;;;16.33;100.00;97113.88;4982473;28;20217;-58
2022/07/04 01:02:25;;;;;;;2.60;2.40;;;;;;;16.38;100.00;97111.34;4986226;28;20813;-57
2022/07/04 01:04:53;;;;;;;3.20;2.10;;;;;;;16.37;100.00;97114.25;4946917;28;20245;-59
2022/07/04 01:07:23;;;;;;;2.40;2.20;;;;;;;16.44;100.00;97120.31;4985739;28;20256;-58
2022/07/04 01:09:52;;;;;;;2.17;1.97;;;;;;;16.41;100.00;97126.94;4986212;28;20257;-57
2022/07/04 01:12:27;;;;;;;2.20;2.10;;;;;;;16.48;100.00;97122.34;4970875;28;20279;-60
2022/07/04 01:14:55;;;;;;;3.33;2.10;;;;;;;16.56;100.00;97120.41;4988569;28;20233;-59
2022/07/04 01:17:24;;;;;;;2.23;2.03;;;;;;;16.51;100.00;97110.38;4990143;28;20315;-58
2022/07/04 01:19:52;;;;;;;2.97;2.77;;;;;;;16.58;100.00;97121.00;4950716;28;20237;-57
2022/07/04 01:22:22;;;;;;;6.23;2.47;;;;;;;16.60;100.00;97118.91;4981938;28;20300;-58
2022/07/04 01:24:50;;;;;;;2.40;2.30;;;;;;;16.65;100.00;97121.72;4988057;28;20881;-58
2022/07/04 01:27:19;;;;;;;3.23;2.20;;;;;;;16.72;100.00;97110.97;4950520;28;20354;-59
2022/07/04 01:29:47;;;;;;;2.07;2.07;;;;;;;16.73;100.00;97108.03;4982034;28;20217;-59
2022/07/04 01:32:15;;;;;;;3.27;3.07;;;;;;;16.72;100.00;97110.97;4980018;28;20273;-56
2022/07/04 01:34:43;;;;;;;2.43;2.33;;;;;;;16.77;100.00;97103.88;4990197;28;20205;-57
2022/07/04 01:37:12;;;;;;;2.67;2.40;;;;;;;16.86;100.00;97101.69;4941917;28;20299;-60
2022/07/04 01:39:42;;;;;;;2.47;2.37;;;;;;;16.88;100.00;97098.81;4981102;28;20202;-59
2022/07/04 01:42:10;;;;;;;2.10;2.00;;;;;;;16.87;100.00;97097.19;4986367;28;20201;-57
2022/07/04 01:44:39;;;;;;;2.50;2.40;;;;;;;16.87;100.00;97094.50;4968005;28;20241;-59
2022/07/04 01:47:07;;;;;;;2.37;2.27;;;;;;;16.86;100.00;97093.69;4985338;28;20652;-58
2022/07/04 01:49:35;;;;;;;2.37;2.27;;;;;;;16.81;100.00;97087.34;4983894;28;20226;-58
2022/07/04 01:52:04;;;;;;;2.40;2.30;;;;;;;16.79;100.00;97082.25;4948086;28;20293;-58
2022/07/04 01:54:32;;;;;;;3.60;3.40;;;;;;;16.79;100.00;97072.34;4980479;28;20896;-59
2022/07/04 01:57:02;;;;;;;2.53;2.43;;;;;;;16.82;100.00;97080.97;4981232;28;20934;-60
2022/07/04 02:02:21;;;;;;;2.70;2.50;;;;;;;16.62;100.00;97077.50;4963768;28;20257;-55
2022/07/04 02:04:49;;;;;;;2.20;2.00;;;;;;;16.59;100.00;97069.94;4963896;28;20859;-59
2022/07/04 02:07:18;;;;;;;2.50;2.40;;;;;;;16.63;100.00;97062.28;4952971;28;20234;-56
2022/07/04 02:09:46;;;;;;;2.50;2.40;;;;;;;16.56;100.00;97073.06;4981672;28;21139;-60
2022/07/04 02:15:01;;;;;;;2.17;2.00;;;;;;;16.63;100.00;97089.84;4968444;28;21006;-59
2022/07/04 02:17:29;;;;;;;2.10;2.00;;;;;;;16.72;100.00;97086.88;4987953;28;20786;-58
2022/07/04 02:19:58;;;;;;;2.20;2.10;;;;;;;16.76;100.00;97080.03;4986808;28;20940;-59
2022/07/04 02:22:26;;;;;;;2.20;2.10;;;;;;;16.79;100.00;97093.75;4984245;28;20645;-59
2022/07/04 02:24:55;;;;;;;2.07;1.97;;;;;;;16.82;100.00;97087.16;4958601;28;20955;-60
2022/07/04 02:27:24;;;;;;;2.13;2.03;;;;;;;16.79;100.00;97087.59;4983416;28;20229;-58
2022/07/04 02:29:52;;;;;;;2.30;2.20;;;;;;;16.77;100.00;97082.47;4961533;28;20959;-57
2022/07/04 02:32:20;;;;;;;2.40;2.20;;;;;;;16.76;100.00;97080.03;4988209;28;20224;-61
2022/07/04 02:34:49;;;;;;;3.03;2.27;;;;;;;16.69;100.00;97079.31;4982559;28;20430;-58
2022/07/04 02:37:17;;;;;;;4.53;2.23;;;;;;;16.61;100.00;97067.84;4957804;28;20232;-57
2022/07/04 02:39:46;;;;;;;2.30;2.20;;;;;;;16.57;100.00;97076.56;4946020;28;20209;-57
2022/07/04 02:42:14;;;;;;;2.33;2.10;;;;;;;16.49;100.00;97075.84;4978564;28;20237;-57
2022/07/04 02:44:44;;;;;;;2.50;2.33;;;;;;;16.42;100.00;97068.94;4989867;28;20697;-51
2022/07/04 02:47:13;;;;;;;2.57;2.37;;;;;;;16.40;100.00;97069.16;4959556;28;20465;-59
2022/07/04 02:49:41;;;;;;;2.43;2.33;;;;;;;16.32;100.00;97072.97;4982009;28;20275;-56
2022/07/04 02:52:09;;;;;;;2.20;2.10;;;;;;;16.31;100.00;97083.88;4982668;28;20288;-57
2022/07/04 02:54:37;;;;;;;2.50;1.90;;;;;;;16.21;100.00;97073.69;4907265;28;20597;-59
2022/07/04 02:57:06;;;;;;;2.67;2.37;;;;;;;16.24;100.00;97080.44;4951475;28;20222;-59
2022/07/04 02:59:34;;;;;;;2.13;2.03;;;;;;;16.22;100.00;97082.53;4983250;28;20201;-59
2022/07/04 03:02:04;;;;;;;2.10;2.00;;;;;;;16.24;100.00;97091.16;4959988;28;20622;-60
2022/07/04 03:04:32;;;;;;;2.00;1.90;;;;;;;16.25;100.00;97080.22;4990492;28;20784;-58
2022/07/04 03:07:01;;;;;;;3.43;2.47;;;;;;;16.31;100.00;97087.38;4982090;28;20283;-56
2022/07/04 03:09:29;;;;;;;2.10;2.00;;;;;;;16.29;100.00;97091.28;4986827;28;20639;-60
2022/07/04 03:11:57;;;;;;;2.30;2.20;;;;;;;16.27;100.00;97088.81;4932631;28;20249;-58
2022/07/04 03:14:25;;;;;;;2.00;1.90;;;;;;;16.25;100.00;97080.22;4985472;28;20299;-60
2022/07/04 03:16:53;;;;;;;2.23;2.13;;;;;;;16.19;100.00;97081.09;4969958;28;20319;-58
2022/07/04 03:19:23;;;;;;;2.57;2.47;;;;;;;16.25;100.00;97084.75;4980500;28;20666;-58
2022/07/04 03:21:51;;;;;;;2.50;2.40;;;;;;;16.24;100.00;97085.78;4982376;28;20296;-56
2022/07/04 03:24:19;;;;;;;3.90;2.60;;;;;;;16.24;100.00;97094.63;4978754;28;20427;-59
2022/07/04 03:26:47;;;;;;;2.93;2.37;;;;;;;16.28;100.00;97101.16;4940008;28;20327;-56
2022/07/04 03:29:15;;;;;;;2.50;2.40;;;;;;;16.34;100.00;97100.28;4978645;28;21925;-61
2022/07/04 03:31:43;;;;;;;2.73;2.60;;;;;;;16.36;100.00;97108.06;4982545;28;20276;-59
2022/07/04 03:34:12;;;;;;;2.83;2.63;;;;;;;16.40;100.00;97103.91;4956248;28;20432;-59
2022/07/04 03:36:41;;;;;;;2.30;2.20;;;;;;;16.42;100.00;97115.19;4984583;28;20304;-61
2022/07/04 03:39:09;;;;;;;4.77;3.03;;;;;;;16.45;100.00;97121.97;4981643;28;20217;-63
2022/07/04 03:41:37;;;;;;;2.70;2.53;;;;;;;16.53;100.00;97135.03;4985654;28;20236;-62
2022/07/04 03:44:05;;;;;;;2.10;2.10;;;;;;;16.58;100.00;97135.16;4932467;28;20506;-61
2022/07/04 03:46:33;;;;;;;2.83;2.67;;;;;;;16.59;100.00;97141.34;4978371;28;20311;-61
2022/07/04 03:49:01;;;;;;;2.50;2.40;;;;;;;16.61;100.00;97140.06;4935838;28;20252;-59
2022/07/04 03:51:29;;;;;;;2.17;2.07;;;;;;;16.63;100.00;97147.88;4983212;28;20390;-62
2022/07/04 03:54:00;;;;;;;3.37;2.90;;;;;;;16.68;100.00;97148.03;4978619;28;20200;-60
2022/07/04 03:56:28;;;;;;;2.47;2.27;;;;;;;16.69;100.00;97144.31;4980065;28;20248;-61
2022/07/04 03:58:56;;;;;;;3.23;2.17;;;;;;;16.74;100.00;97155.16;4932067;28;20299;-61
2022/07/04 04:01:24;;;;;;;2.53;2.43;;;;;;;16.76;100.00;97158.41;4979385;28;20515;-61
2022/07/04 04:06:38;;;;;;;3.03;2.40;;;;;;;16.87;100.00;97164.06;4987381;28;20645;-59
2022/07/04 04:09:12;;;;;;;3.10;2.90;;;;;;;16.88;100.00;97165.72;4981314;28;20605;-61
2022/07/04 04:11:40;;;;;;;3.73;2.50;;;;;;;16.98;100.00;97174.03;4988461;28;20240;-58
2022/07/04 04:14:08;;;;;;;2.40;2.17;;;;;;;17.08;100.00;97168.16;4941501;28;20239;-59
2022/07/04 04:16:36;;;;;;;3.90;2.53;;;;;;;17.13;100.00;97175.50;4981112;28;20435;-60
2022/07/04 04:19:05;;;;;;;3.37;2.60;;;;;;;17.16;100.00;97175.03;4959588;28;20196;-61
2022/07/04 04:21:33;;;;;;;4.23;2.77;;;;;;;17.20;100.00;97173.53;4979909;28;20663;-56
2022/07/04 04:24:01;;;;;;;2.70;2.60;;;;;;;17.24;100.00;97168.56;4951460;28;20301;-58
2022/07/04 04:26:30;;;;;;;4.23;3.07;;;;;;;17.22;100.00;97176.81;4983172;28;20256;-60
2022/07/04 04:28:58;;;;;;;2.30;2.20;;;;;;;17.25;100.00;97170.19;4930307;28;20344;-59
2022/07/04 04:31:26;;;;;;;5.90;2.83;;;;;;;17.25;100.00;97179.06;4973786;28;20233;-58
2022/07/04 04:33:55;;;;;;;3.03;2.83;;;;;;;17.31;100.00;97170.09;4977199;28;20820;-58
2022/07/04 04:36:23;;;;;;;2.83;2.60;;;;;;;17.23;100.00;97178.44;4960024;28;20690;-60
2022/07/04 04:38:51;;;;;;;4.60;3.00;;;;;;;17.24;100.00;97180.09;4951529;28;20213;-59
2022/07/04 04:41:19;;;;;;;3.80;3.40;;;;;;;17.27;100.00;97181.50;4979447;28;20284;-56
2022/07/04 04:43:48;;;;;;;4.73;4.20;;;;;;;17.38;100.00;97179.91;4928864;28;20241;-60
2022/07/04 04:46:20;;;;;;;3.00;2.70;;;;;;;17.36;100.00;97188.97;4969604;28;20312;-61
2022/07/04 04:48:48;;;;;;;2.83;2.63;;;;;;;17.41;100.00;97184.81;4963971;28;20212;-57
2022/07/04 04:51:16;;;;;;;2.77;2.57;;;;;;;17.50;100.00;97184.25;4960637;28;20244;-57
2022/07/04 04:53:44;;;;;;;3.40;2.77;;;;;;;17.54;100.00;97189.97;4985387;28;20205;-58
2022/07/04 04:56:12;;;;;;;3.83;2.60;;;;;;;17.59;100.00;97190.09;4981129;28;20492;-60
2022/07/04 04:58:40;;;;;;;2.43;2.33;;;;;;;17.67;100.00;97194.31;4983909;28;20669;-55
2022/07/04 05:01:10;;;;;;;2.73;2.53;;;;;;;17.82;100.00;97196.56;4936874;28;20205;-60
2022/07/04 05:03:58;;;;;;;3.00;2.80;;;;;;;17.82;100.00;97191.19;4923542;28;20268;-59
2022/07/04 05:06:26;;;;;;;2.30;2.20;;;;;;;17.85;100.00;97197.97;4974078;28;20427;-59
2022/07/04 05:08:55;;;;;;;2.77;2.63;;;;;;;17.86;100.00;97204.97;4983526;28;20259;-59
2022/07/04 05:11:23;;;;;;;3.03;2.60;;;;;;;17.77;100.00;97202.59;4977116;28;20768;-59
2022/07/04 05:13:51;;;;;;;2.63;2.43;;;;;;;17.76;100.00;97198.28;4981828;28;20233;-62
2022/07/04 05:16:20;;;;;;;2.40;2.30;;;;;;;17.85;100.00;97201.44;4983070;28;20708;-59
2022/07/04 05:18:48;;;;;;;2.80;2.60;;;;;;;17.83;100.00;97210.78;4932995;28;20618;-62
2022/07/04 05:21:16;;;;;;;3.33;3.23;;;;;;;17.85;100.00;97222.09;4975685;28;20292;-57
2022/07/04 05:23:44;;;;;;;3.20;2.90;;;;;;;17.87;100.00;97226.16;4979966;28;20375;-61
2022/07/04 05:26:12;;;;;;;2.80;2.67;;;;;;;17.96;100.00;97223.13;4980819;28;20205;-60
2022/07/04 05:28:40;;;;;;;5.80;2.90;;;;;;;17.99;100.00;97225.34;4980272;28;20718;-61
2022/07/04 05:31:08;;;;;;;2.33;2.23;;;;;;;17.97;100.00;97232.81;4981628;28;20323;-61
2022/07/04 05:33:38;;;;;;;3.07;2.83;;;;;;;18.00;100.00;97227.81;4939069;28;21766;-62
2022/07/04 05:36:07;;;;;;;4.33;2.90;;;;;;;18.05;100.00;97219.91;4983503;28;20260;-60
2022/07/04 05:38:35;;;;;;;5.37;3.00;;;;;;;17.91;100.00;97221.16;4984814;28;20554;-61
2022/07/04 05:41:03;;;;;;;3.97;2.90;;;;;;;17.82;100.00;97217.19;4983768;28;20319;-60
2022/07/04 05:43:31;;;;;;;4.30;2.93;;;;;;;17.75;100.00;97220.75;4980947;28;20263;-61
2022/07/04 05:45:59;;;;;;;2.80;2.70;;;;;;;17.67;100.00;97223.78;4988540;28;20213;-62
2022/07/04 05:48:27;;;;;;;3.73;3.50;;;;;;;17.67;100.00;97231.81;4938432;28;20808;-62
2022/07/04 05:50:57;;;;;;;5.77;4.03;;;;;;;17.71;100.00;97241.03;4985768;28;20319;-61
2022/07/04 05:53:25;;;;;;;3.90;3.60;;;;;;;17.70;100.00;97247.44;4985583;28;20274;-59
2022/07/04 05:55:53;;;;;;;5.17;4.33;;;;;;;17.65;100.00;97225.88;4987883;28;20255;-61
2022/07/04 05:58:21;;;;;;;4.60;4.20;;;;;;;17.79;100.00;97229.97;4987082;28;20315;-58
2022/07/04 06:00:49;;;;;;;4.20;3.80;;;;;;;17.93;100.00;97227.91;4985149;28;20296;-61
2022/07/04 06:03:18;;;;;;;3.83;3.53;;;;;;;18.07;100.00;97225.88;4955966;28;20304;-59
2022/07/04 06:05:52;;;;;;;3.70;3.50;;;;;;;18.24;100.00;97211.78;4981052;28;20344;-59
2022/07/04 06:08:22;;;;;;;3.60;3.40;;;;;;;18.41;100.00;97209.22;4984215;28;20320;-59
2022/07/04 06:10:50;;;;;;;3.63;3.33;;;;;;;18.67;100.00;97207.09;4984367;28;20197;-62
2022/07/04 06:13:18;;;;;;;3.70;3.50;;;;;;;19.00;100.00;97207.53;4978920;28;20214;-58
2022/07/04 06:15:47;;;;;;;4.20;3.40;;;;;;;19.25;100.00;97199.16;4985067;28;20277;-62
2022/07/04 06:18:15;;;;;;;4.03;3.63;;;;;;;19.49;100.00;97199.03;4986916;28;20345;-59
2022/07/04 06:20:43;;;;;;;3.73;3.37;;;;;;;19.57;100.00;97201.34;4940805;28;20436;-62
2022/07/04 06:23:11;;;;;;;3.30;3.10;;;;;;;19.64;100.00;97215.44;4981521;28;20201;-60
2022/07/04 06:25:41;;;;;;;3.60;3.27;;;;;;;20.02;100.00;97225.78;4979906;28;20717;-60
2022/07/04 06:28:09;;;;;;;3.93;3.47;;;;;;;20.18;100.00;97224.94;4965533;28;20259;-61
2022/07/04 06:30:57;;;;;;;4.10;3.40;;;;;;;20.23;100.00;97229.59;4973646;28;20227;-59
2022/07/04 06:33:26;;;;;;;3.47;2.73;;;;;;;20.61;100.00;97241.47;4987592;28;20268;-62
2022/07/04 06:35:54;;;;;;;4.80;3.83;;;;;;;20.63;100.00;97242.03;4937612;28;20222;-59
2022/07/04 06:38:23;;;;;;;3.93;3.53;;;;;;;20.76;100.00;97248.13;4983919;28;20246;-61
2022/07/04 06:40:55;;;;;;;4.00;3.70;;;;;;;20.86;100.00;97242.09;4979014;28;20233;-60
2022/07/04 06:43:23;;;;;;;3.83;3.60;;;;;;;20.99;100.00;97238.22;4984740;28;20684;-61
2022/07/04 06:45:51;;;;;;;3.90;3.60;;;;;;;21.24;100.00;97232.31;4982167;28;20213;-60
2022/07/04 06:48:21;;;;;;;3.77;3.50;;;;;;;21.29;100.00;97229.69;4972243;28;20446;-61
2022/07/04 06:50:49;;;;;;;5.53;3.80;;;;;;;21.33;100.00;97238.88;4926027;28;20791;-58
2022/07/04 06:53:17;;;;;;;4.27;3.70;;;;;;;21.46;100.00;97229.59;4980322;28;20537;-62
2022/07/04 06:55:45;;;;;;;4.80;3.87;;;;;;;21.59;100.00;97238.34;4983205;28;20589;-58
2022/07/04 06:58:14;;;;;;;5.23;3.90;;;;;;;21.73;100.00;97234.22;4980184;28;20442;-60
2022/07/04 07:00:43;;;;;;;4.43;3.47;;;;;;;22.07;100.00;97230.47;4982988;28;20233;-57
2022/07/04 07:03:12;;;;;;;3.37;3.17;;;;;;;22.26;99.81;97238.97;4969251;28;20450;-62
2022/07/04 07:05:40;;;;;;;3.87;3.50;;;;;;;22.31;87.60;97228.22;4984768;28;20205;-63
2022/07/04 07:08:28;;;;;;;3.80;3.60;;;;;;;22.40;86.54;97232.06;4984964;28;20243;-62
2022/07/04 07:10:57;;;;;;;3.90;3.60;;;;;;;22.37;90.76;97242.56;4934014;28;20300;-61
2022/07/04 07:13:26;;;;;;;3.97;3.67;;;;;;;22.61;90.39;97250.31;4972356;28;20486;-61
2022/07/04 07:15:55;;;;;;;3.27;3.07;;;;;;;22.40;88.05;97242.03;4983396;28;20379;-62
2022/07/04 07:18:23;;;;;;;3.77;3.47;;;;;;;22.38;92.64;97247.72;4970936;28;20806;-63
2022/07/04 07:20:51;;;;;;;3.27;3.03;;;;;;;22.38;95.33;97244.19;4986600;28;20208;-61
2022/07/04 07:23:19;;;;;;;3.20;2.97;;;;;;;22.39;88.21;97245.81;4968282;28;20435;-62
2022/07/04 07:25:47;;;;;;;6.07;3.90;;;;;;;22.30;100.00;97253.56;4942870;28;20336;-58
2022/07/04 07:28:15;;;;;;;3.50;3.30;;;;;;;22.29;100.00;97251.94;4974327;28;20483;-62
2022/07/04 07:30:45;;;;;;;4.87;3.53;;;;;;;22.03;100.00;97253.63;4981726;28;20197;-61
2022/07/04 07:33:13;;;;;;;5.13;3.70;;;;;;;22.05;100.00;97249.63;4978019;28;20216;-61
2022/07/04 07:35:41;;;;;;;3.53;3.33;;;;;;;21.91;100.00;97251.91;4981019;28;20225;-62
2022/07/04 07:38:10;;;;;;;5.30;3.47;;;;;;;22.00;100.00;97256.84;4978470;28;20235;-59
2022/07/04 07:40:38;;;;;;;4.00;3.70;;;;;;;22.20;100.00;97248.09;4965950;28;20867;-62
2022/07/04 07:43:06;;;;;;;3.80;3.50;;;;;;;22.36;100.00;97252.56;4935914;28;20686;-58
2022/07/04 07:45:34;;;;;;;5.17;3.57;;;;;;;22.55;100.00;97242.19;4983889;28;20205;-62
2022/07/04 07:48:04;;;;;;;5.50;5.10;;;;;;;22.50;100.00;97247.53;4979907;28;20838;-57
2022/07/04 07:50:33;;;;;;;4.23;3.97;;;;;;;22.62;100.00;97250.03;4979498;28;20197;-62
2022/07/04 07:53:01;;;;;;;4.63;3.50;;;;;;;22.86;100.00;97256.94;4981543;28;20256;-60
2022/07/04 07:55:29;;;;;;;5.20;4.37;;;;;;;22.45;100.00;97243.97;4965099;28;20474;-62
2022/07/04 07:57:58;;;;;;;4.00;3.70;;;;;;;23.06;100.00;97248.09;4940177;28;20283;-60
2022/07/04 08:00:27;;;;;;;4.00;3.63;;;;;;;23.21;97.88;97259.00;4947814;28;20295;-62
2022/07/04 08:06:03;;;;;;;3.57;3.33;;;;;;;23.63;92.01;97246.44;4962279;28;20209;-62
2022/07/04 08:08:32;;;;;;;3.90;3.50;;;;;;;23.80;85.52;97239.97;4980174;28;20736;-62
2022/07/04 08:11:00;;;;;;;3.53;3.23;;;;;;;24.12;86.06;97245.16;4961444;28;20206;-60
2022/07/04 08:13:28;;;;;;;6.33;3.27;;;;;;;24.49;77.76;97240.53;4940055;28;20446;-62
2022/07/04 08:15:56;;;;;;;4.73;3.70;;;;;;;24.51;77.47;97242.97;4973757;28;20201;-60
2022/07/04 08:18:26;;;;;;;6.27;3.50;;;;;;;24.66;72.69;97244.84;4980692;28;20225;-62
2022/07/04 08:20:54;;;;;;;6.37;3.70;;;;;;;24.78;70.82;97244.56;4937664;28;20489;-62
2022/07/04 08:23:30;;;;;;;3.93;3.63;;;;;;;24.36;74.19;97236.50;4984202;28;20200;-61
2022/07/04 08:25:59;;;;;;;3.70;3.40;;;;;;;24.36;69.45;97236.50;4977023;28;20847;-62
2022/07/04 08:28:27;;;;;;;3.57;3.37;;;;;;;24.23;74.77;97232.44;4969162;28;20365;-62
2022/07/04 08:30:58;;;;;;;4.17;3.63;;;;;;;24.33;73.96;97236.22;4930951;28;20549;-62
2022/07/04 08:33:27;;;;;;;3.80;3.13;;;;;;;24.55;70.44;97230.50;4979300;28;20256;-62
2022/07/04 08:36:02;;;;;;;4.10;3.90;;;;;;;24.50;67.65;97233.22;4963899;28;20319;-62
2022/07/04 08:38:30;;;;;;;3.63;3.33;;;;;;;24.52;70.28;97226.47;4983450;28;20233;-62
2022/07/04 08:40:59;;;;;;;4.00;3.70;;;;;;;24.42;68.17;97229.16;4978218;28;20373;-61
2022/07/04 08:43:28;;;;;;;4.37;4.07;;;;;;;24.03;66.65;97227.84;4966546;28;20258;-61
2022/07/04 08:45:58;;;;;;;5.57;5.10;;;;;;;24.20;62.82;97230.28;4931000;28;20348;-62
2022/07/04 08:48:52;;;;;;;4.20;3.90;;;;;;;24.28;67.75;97223.53;4978435;28;20296;-58
2022/07/04 08:51:26;;;;;;;7.23;6.83;;;;;;;24.31;71.13;97228.38;4980632;28;20193;-60
2022/07/04 08:53:58;;;;;;;5.67;5.17;;;;;;;24.03;71.78;97216.19;4961993;28;20796;-62
2022/07/04 08:59:12;;;;;;;7.30;3.27;;;;;;;24.59;66.01;97220.75;4963975;28;20286;-62
2022/07/04 09:01:41;;;;;;;2.70;2.50;;;;;;;24.81;62.72;97225.88;4936685;28;20296;-59
2022/07/04 09:04:11;;;;;;;3.40;2.60;;;;;;;24.17;65.12;97228.13;4983154;28;20330;-62
2022/07/04 09:06:41;;;;;;;4.50;2.43;;;;;;;23.75;70.37;97238.06;4979207;28;20476;-60
2022/07/04 09:09:09;;;;;;;3.07;2.90;;;;;;;24.28;62.03;97224.31;4966808;28;20438;-62
2022/07/04 09:11:37;;;;;;;2.70;2.60;;;;;;;24.77;68.23;97232.13;4985554;28;20735;-59
2022/07/04 09:14:05;;;;;;;6.37;2.77;;;;;;;25.03;65.43;97224.69;4948472;28;20506;-61
2022/07/04 09:16:33;;;;;;;2.83;2.67;;;;;;;25.19;64.19;97227.34;4933785;28;20268;-57
2022/07/04 09:19:01;;;;;;;3.13;2.83;;;;;;;25.44;66.52;97231.84;4968078;28;20231;-61
2022/07/04 09:21:46;;;;;;;2.93;2.60;;;;;;;25.44;64.44;97224.50;4982560;28;20252;-60
2022/07/04 09:24:14;;;;;;;2.77;2.57;;;;;;;25.51;64.19;97223.41;4969140;28;20297;-63
2022/07/04 09:26:45;;;;;;;4.33;2.50;;;;;;;25.72;59.97;97221.38;4983189;28;20328;-59
2022/07/04 09:29:13;;;;;;;2.33;2.23;;;;;;;25.95;62.17;97225.31;4984275;28;20300;-62
2022/07/04 09:31:42;;;;;;;2.57;2.37;;;;;;;25.68;65.25;97226.56;4949015;28;20203;-60
2022/07/04 09:34:10;;;;;;;2.50;2.40;;;;;;;25.40;69.33;97223.44;4976276;28;20667;-62
2022/07/04 09:36:42;;;;;;;2.20;2.07;;;;;;;25.54;72.33;97220.97;4962522;28;20731;-61
2022/07/04 09:39:14;;;;;;;2.60;2.40;;;;;;;26.10;65.19;97218.13;4983245;28;20207;-62
2022/07/04 09:41:56;;;;;;;3.03;2.70;;;;;;;26.22;65.17;97226.72;4972794;28;20699;-59
2022/07/04 09:44:25;;;;;;;4.60;2.37;;;;;;;26.48;60.82;97221.06;4986259;28;20269;-62
2022/07/04 09:46:53;;;;;;;2.93;2.63;;;;;;;26.98;62.73;97225.44;4981262;28;20421;-62
2022/07/04 09:49:22;;;;;;;10.23;2.73;;;;;;;27.01;60.74;97224.84;4939373;28;20220;-60
2022/07/04 09:51:52;;;;;;;3.33;3.03;;;;;;;26.55;63.00;97231.59;4981733;28;20292;-62
2022/07/04 09:54:26;;;;;;;2.47;2.37;;;;;;;26.47;58.67;97230.31;4981209;28;20232;-62
2022/07/04 09:56:56;;;;;;;2.77;2.67;;;;;;;26.23;65.45;97238.41;4968427;28;20450;-61
2022/07/04 09:59:25;;;;;;;2.00;1.90;;;;;;;26.41;65.23;97234.19;4983111;28;20274;-62
2022/07/04 10:01:53;;;;;;;3.83;2.40;;;;;;;26.28;68.76;97233.72;4982437;28;20574;-64
2022/07/04 10:04:24;;;;;;;2.87;2.43;;;;;;;26.76;61.26;97229.47;4936669;28;20664;-60
2022/07/04 10:06:52;;;;;;;2.33;2.20;;;;;;;26.74;61.79;97234.38;4977567;28;20852;-62
2022/07/04 10:09:22;;;;;;;2.20;2.10;;;;;;;26.79;61.58;97233.50;4980474;28;20233;-61
2022/07/04 10:11:50;;;;;;;2.70;2.50;;;;;;;27.18;57.60;97234.47;4961946;28;20269;-62
2022/07/04 10:14:19;;;;;;;2.27;2.17;;;;;;;27.21;54.42;97250.19;4981371;28;20362;-59
2022/07/04 10:16:47;;;;;;;4.83;2.40;;;;;;;27.15;60.10;97244.81;4980341;28;20276;-63
2022/07/04 10:19:16;;;;;;;2.50;2.40;;;;;;;26.81;57.36;97237.56;4940999;28;20351;-63
2022/07/04 10:21:44;;;;;;;2.80;2.30;;;;;;;26.75;61.89;97246.06;4977582;28;20263;-61
2022/07/04 10:24:12;;;;;;;2.63;2.47;;;;;;;26.84;61.66;97247.88;4982091;28;20853;-62
2022/07/04 10:26:42;;;;;;;3.60;1.90;;;;;;;26.93;58.99;97253.50;4981376;28;20256;-60
2022/07/04 10:29:12;;;;;;;4.70;2.33;;;;;;;27.39;58.97;97263.00;4966958;28;20703;-62
2022/07/04 10:31:40;;;;;;;3.17;2.37;;;;;;;26.85;62.28;97256.84;4982059;28;20661;-59
2022/07/04 10:34:08;;;;;;;2.47;2.37;;;;;;;27.36;57.20;97243.75;4980815;28;20662;-63
2022/07/04 10:36:37;;;;;;;4.43;2.10;;;;;;;27.66;56.69;97247.97;4936957;28;20237;-59
2022/07/04 10:39:05;;;;;;;2.23;2.13;;;;;;;27.72;52.80;97249.50;4982637;28;20198;-60
2022/07/04 10:41:33;;;;;;;2.20;1.93;;;;;;;27.82;52.19;97237.69;4981111;28;20206;-61
2022/07/04 10:44:07;;;;;;;2.60;2.40;;;;;;;27.70;48.99;97232.69;4968365;28;21248;-60
2022/07/04 10:46:44;;;;;;;2.07;1.97;;;;;;;27.34;50.38;97219.53;4979095;28;20228;-60
2022/07/04 10:49:25;;;;;;;2.70;2.50;;;;;;;27.31;55.54;97217.41;4986117;28;20219;-62
2022/07/04 10:51:54;;;;;;;2.53;2.33;;;;;;;27.38;50.57;97211.63;4943933;28;20336;-63
2022/07/04 10:54:31;;;;;;;2.80;1.97;;;;;;;27.52;50.07;97214.47;4988136;28;20292;-63
2022/07/04 10:57:10;;;;;;;2.10;2.00;;;;;;;27.24;51.80;97215.03;4978561;28;20294;-64
2022/07/04 10:59:40;;;;;;;2.47;2.30;;;;;;;26.95;48.18;97198.84;4965830;28;20288;-61
2022/07/04 11:02:26;;;;;;;2.07;1.97;;;;;;;26.90;51.28;97216.03;4982374;28;20218;-63
2022/07/04 11:04:58;;;;;;;2.10;2.00;;;;;;;27.03;51.80;97211.78;4963717;28;20245;-63
2022/07/04 11:07:58;;;;;;;2.27;2.00;;;;;;;26.76;53.14;97210.44;4937571;28;20648;-60
2022/07/04 11:10:26;;;;;;;3.17;2.07;;;;;;;26.93;52.37;97204.59;4979394;28;20241;-61
2022/07/04 11:13:07;;;;;;;1.77;1.77;;;;;;;26.78;49.57;97208.25;4982248;28;20498;-62
2022/07/04 11:16:02;;;;;;;1.90;1.80;;;;;;;27.36;54.33;97198.31;4968106;28;20292;-61
2022/07/04 11:18:31;;;;;;;2.00;1.90;;;;;;;27.62;48.57;97197.97;4982390;28;20300;-62
2022/07/04 11:20:59;;;;;;;2.83;2.30;;;;;;;27.36;51.79;97198.31;4940936;28;20731;-62
2022/07/04 11:23:27;;;;;;;2.23;2.13;;;;;;;27.79;49.28;97180.28;4934565;28;20794;-64
2022/07/04 11:25:57;;;;;;;3.97;3.67;;;;;;;27.72;52.08;97186.91;4975974;28;20735;-61
2022/07/04 11:28:28;;;;;;;2.30;1.97;;;;;;;28.04;50.31;97192.69;4980733;28;20233;-63
2022/07/04 11:31:14;;;;;;;2.70;2.50;;;;;;;28.36;46.73;97190.25;4960072;28;20306;-61
2022/07/04 11:33:43;;;;;;;2.70;2.50;;;;;;;28.55;48.05;97193.69;4980772;28;20464;-62
2022/07/04 11:36:14;;;;;;;2.47;2.27;;;;;;;28.29;45.67;97188.75;4967859;28;20241;-62
2022/07/04 11:38:46;;;;;;;3.53;1.97;;;;;;;28.24;43.75;97186.13;4938668;28;21564;-62
2022/07/04 11:46:51;;;;;;;2.00;1.90;;;;;;;28.26;46.52;97175.72;4980735;28;20761;-62
2022/07/04 11:49:20;;;;;;;2.40;2.17;;;;;;;28.54;43.08;97170.28;4982228;28;20206;-60
2022/07/04 11:51:49;;;;;;;2.30;2.10;;;;;;;27.65;44.26;97181.06;4969348;28;20212;-63
2022/07/04 11:54:18;;;;;;;2.20;2.10;;;;;;;27.93;43.54;97172.16;4985035;28;20434;-62
2022/07/04 11:57:15;;;;;;;2.73;2.53;;;;;;;27.55;44.80;97160.25;4977677;28;20736;-63
2022/07/04 11:59:44;;;;;;;2.57;1.90;;;;;;;27.97;43.97;97165.03;4980064;28;20201;-62